Time;durP1;ratioP1;P1;durP2;ratioP2;P2;SDS_P1;SDS_P2;PMS_P1;PMS_P2;Temp;Humidity;BMP_temperature;BMP_pressure;BME280_temperature;BME280_humidity;BME280_pressure;Samples;Min_cycle;Max_cycle;Signal;HPM_P1;HPM_P2
2022/12/17 13:08:16;;;;;;;50.05;28.23;;;16.50;48.90;;;;;;5040985;28;20216;-65
2022/12/17 13:10:43;;;;;;;40.13;26.38;;;16.40;49.00;;;;;;5033665;28;20204;-65
2022/12/17 13:13:12;;;;;;;42.88;26.23;;;16.50;49.70;;;;;;5034160;28;20196;-65
2022/12/17 13:15:43;;;;;;;36.75;25.08;;;16.50;50.80;;;;;;5033938;28;20230;-65
2022/12/17 13:18:19;;;;;;;40.30;25.05;;;16.50;49.10;;;;;;5033656;28;20228;-65
2022/12/17 13:20:57;;;;;;;39.13;24.58;;;16.50;47.80;;;;;;5033564;28;20219;-65
2022/12/17 13:23:30;;;;;;;37.63;25.10;;;16.50;49.50;;;;;;5033727;28;20172;-65
2022/12/17 13:26:21;;;;;;;40.30;25.73;;;16.50;49.70;;;;;;5033459;28;20246;-65
2022/12/17 13:28:58;;;;;;;37.25;25.35;;;16.60;50.50;;;;;;5033532;28;20273;-65
2022/12/17 13:31:27;;;;;;;34.45;23.67;;;16.60;49.80;;;;;;5018285;28;20199;-65
2022/12/17 13:33:58;;;;;;;38.30;26.00;;;16.60;50.60;;;;;;5034805;28;20192;-65
2022/12/17 13:36:27;;;;;;;36.42;25.83;;;16.60;49.90;;;;;;5033730;28;20578;-65
2022/12/17 13:38:57;;;;;;;35.00;25.52;;;16.60;49.90;;;;;;5033331;28;20219;-65
2022/12/17 13:41:27;;;;;;;34.83;24.30;;;16.60;51.20;;;;;;5033117;28;20192;-64
2022/12/17 13:43:55;;;;;;;35.13;25.35;;;16.60;51.20;;;;;;5031084;28;20199;-65
2022/12/17 13:46:24;;;;;;;35.78;24.13;;;16.70;51.20;;;;;;5016732;28;20638;-66
2022/12/17 13:48:56;;;;;;;37.63;24.45;;;16.70;50.80;;;;;;5031568;28;20616;-65
2022/12/17 13:51:25;;;;;;;32.30;22.75;;;16.70;50.80;;;;;;5030987;28;20227;-66
2022/12/17 13:53:53;;;;;;;31.45;21.58;;;16.70;50.70;;;;;;5009462;28;20212;-65
2022/12/17 13:56:28;;;;;;;29.02;21.85;;;16.70;48.40;;;;;;5014780;28;20193;-66
2022/12/17 13:58:56;;;;;;;30.67;21.00;;;16.70;47.50;;;;;;5028617;28;20326;-66
2022/12/17 14:01:24;;;;;;;31.63;22.10;;;16.70;46.80;;;;;;5017135;28;20213;-66
2022/12/17 14:03:52;;;;;;;26.40;20.10;;;16.60;45.90;;;;;;5012973;28;20197;-65
2022/12/17 14:06:21;;;;;;;27.77;19.00;;;16.60;45.70;;;;;;5014700;28;20626;-65
2022/12/17 14:08:48;;;;;;;28.65;19.05;;;16.60;44.70;;;;;;5017521;28;20207;-66
2022/12/17 14:14:00;;;;;;;26.70;19.52;;;16.50;46.70;;;;;;5034386;28;20182;-65
2022/12/17 14:16:27;;;;;;;23.67;18.73;;;16.50;46.10;;;;;;5032659;28;20192;-65
2022/12/17 14:18:54;;;;;;;25.92;18.17;;;16.40;46.00;;;;;;5033303;28;20216;-65
2022/12/17 14:21:23;;;;;;;29.08;19.20;;;16.40;46.30;;;;;;5033227;28;20196;-65
2022/12/17 14:23:50;;;;;;;22.58;17.83;;;16.30;46.60;;;;;;5032722;28;20203;-65
2022/12/17 14:26:17;;;;;;;25.33;18.20;;;16.20;45.10;;;;;;5032769;28;20678;-65
2022/12/17 14:28:46;;;;;;;23.02;16.88;;;16.20;45.40;;;;;;5032993;28;20227;-65
2022/12/17 14:31:18;;;;;;;25.20;18.00;;;16.10;45.70;;;;;;5032855;28;20211;-65
2022/12/17 14:33:45;;;;;;;23.77;17.90;;;16.10;44.70;;;;;;5016441;28;20319;-65
2022/12/17 14:36:18;;;;;;;26.40;17.27;;;16.00;45.60;;;;;;5027874;28;20224;-65
2022/12/17 14:38:53;;;;;;;24.55;17.73;;;16.00;47.10;;;;;;5012469;28;20216;-65
2022/12/17 14:44:04;;;;;;;28.70;20.20;;;16.00;45.80;;;;;;5023468;28;20246;-65
2022/12/17 14:46:31;;;;;;;27.45;19.05;;;15.90;44.50;;;;;;5031472;28;20220;-63
2022/12/17 14:49:03;;;;;;;26.20;18.40;;;15.90;44.20;;;;;;5032636;28;20212;-63
2022/12/17 14:51:32;;;;;;;28.42;18.55;;;15.80;43.90;;;;;;5033435;28;20214;-63
2022/12/17 14:54:18;;;;;;;23.77;17.13;;;15.80;43.30;;;;;;5033562;28;20200;-63
2022/12/17 14:56:46;;;;;;;27.02;18.13;;;15.80;44.10;;;;;;5042738;28;20200;-63
2022/12/17 14:59:24;;;;;;;26.83;18.88;;;15.80;42.50;;;;;;5030954;28;20705;-63
2022/12/17 15:01:51;;;;;;;25.20;17.65;;;15.80;42.30;;;;;;5031214;28;20299;-62
2022/12/17 15:04:18;;;;;;;22.40;17.50;;;15.70;42.30;;;;;;5028602;28;20212;-62
2022/12/17 15:06:45;;;;;;;23.02;17.27;;;15.70;42.40;;;;;;5032510;28;20666;-62
2022/12/17 15:09:14;;;;;;;23.58;17.10;;;15.70;42.40;;;;;;5032672;28;20582;-62
2022/12/17 15:11:40;;;;;;;21.88;16.95;;;15.60;42.20;;;;;;5031185;28;20572;-63
2022/12/17 15:14:09;;;;;;;20.88;16.05;;;15.60;41.80;;;;;;5015099;28;20212;-63
2022/12/17 15:16:36;;;;;;;24.40;16.20;;;15.50;42.00;;;;;;5013765;28;20185;-63
2022/12/17 15:19:04;;;;;;;21.35;16.20;;;15.50;42.30;;;;;;5012102;28;20256;-63
2022/12/17 15:21:31;;;;;;;22.73;16.75;;;15.50;42.20;;;;;;5011576;28;20251;-63
2022/12/17 15:23:58;;;;;;;22.23;16.35;;;15.50;42.10;;;;;;5011937;28;20291;-63
2022/12/17 15:26:26;;;;;;;21.88;16.50;;;15.40;41.80;;;;;;5012057;28;20275;-63
2022/12/17 15:28:54;;;;;;;21.58;16.02;;;15.40;41.70;;;;;;5012216;28;20209;-63
2022/12/17 15:31:21;;;;;;;21.33;15.13;;;15.40;42.00;;;;;;4996384;28;20200;-63
2022/12/17 15:33:49;;;;;;;19.05;15.35;;;15.40;42.10;;;;;;5013999;28;20224;-63
2022/12/17 15:36:17;;;;;;;19.90;16.00;;;15.30;41.60;;;;;;5000730;28;20197;-63
2022/12/17 15:38:45;;;;;;;23.48;18.88;;;15.30;41.70;;;;;;5017226;28;20216;-64
2022/12/17 15:43:57;;;;;;;21.20;18.23;;;15.20;40.00;;;;;;5016386;28;20654;-64
2022/12/17 15:46:24;;;;;;;148.65;86.72;;;15.20;40.60;;;;;;5016094;28;20213;-64
2022/12/17 15:48:51;;;;;;;79.13;47.90;;;15.20;43.10;;;;;;5014148;28;20271;-64
2022/12/17 15:51:19;;;;;;;76.47;45.08;;;15.10;41.90;;;;;;5014764;28;20203;-64
2022/12/17 15:53:47;;;;;;;81.88;52.65;;;15.20;43.60;;;;;;5014913;28;20201;-64
2022/12/17 15:56:17;;;;;;;68.32;43.42;;;15.10;44.00;;;;;;5014848;28;20544;-64
2022/12/17 15:58:44;;;;;;;61.45;37.78;;;15.10;45.10;;;;;;5016950;28;20630;-64
2022/12/17 16:01:13;;;;;;;52.63;34.90;;;15.20;45.30;;;;;;5016046;28;20203;-64
2022/12/17 16:03:40;;;;;;;53.95;35.20;;;15.20;45.40;;;;;;5033686;28;20272;-64
2022/12/17 16:06:07;;;;;;;45.40;32.67;;;15.20;45.20;;;;;;5034940;28;20250;-64
2022/12/17 16:08:34;;;;;;;44.42;30.45;;;15.20;44.90;;;;;;5019382;28;20732;-64
2022/12/17 16:11:05;;;;;;;42.30;29.75;;;15.30;43.80;;;;;;5018729;28;20200;-64
2022/12/17 16:13:32;;;;;;;41.90;28.80;;;15.30;43.70;;;;;;5035586;28;20235;-64
2022/12/17 16:15:59;;;;;;;38.70;26.92;;;15.30;43.00;;;;;;5034767;28;20196;-64
2022/12/17 16:18:27;;;;;;;37.97;27.50;;;15.30;42.80;;;;;;5035305;28;20220;-64
2022/12/17 16:20:55;;;;;;;36.50;26.63;;;15.40;43.10;;;;;;5036210;28;20193;-64
2022/12/17 16:23:22;;;;;;;38.92;26.73;;;15.40;43.90;;;;;;5030886;28;20204;-64
2022/12/17 16:25:56;;;;;;;37.08;25.33;;;15.40;43.70;;;;;;5015440;28;20220;-64
2022/12/17 16:28:23;;;;;;;38.35;26.42;;;15.40;44.10;;;;;;5015374;28;20221;-64
2022/12/17 16:30:58;;;;;;;35.20;25.95;;;15.50;44.60;;;;;;5015389;28;20201;-64
2022/12/17 16:33:26;;;;;;;36.70;26.50;;;15.40;44.40;;;;;;5015587;28;20659;-64
2022/12/17 16:35:53;;;;;;;36.55;24.50;;;15.40;44.50;;;;;;5015145;28;20639;-64
2022/12/17 16:38:21;;;;;;;36.28;24.80;;;15.40;44.40;;;;;;5033124;28;20633;-65
2022/12/17 16:40:47;;;;;;;34.75;25.85;;;15.40;45.10;;;;;;5036297;28;20192;-64
2022/12/17 16:43:15;;;;;;;34.90;23.95;;;15.30;45.40;;;;;;5034548;28;20262;-64
2022/12/17 16:45:47;;;;;;;34.13;24.17;;;15.30;45.10;;;;;;5033735;28;20633;-64
2022/12/17 16:48:14;;;;;;;34.60;24.40;;;15.30;45.30;;;;;;5036392;28;20224;-64
2022/12/17 16:50:43;;;;;;;34.28;24.30;;;15.30;45.50;;;;;;5034983;28;20198;-64
2022/12/17 16:53:10;;;;;;;33.08;23.63;;;15.30;45.10;;;;;;5034305;28;20210;-64
2022/12/17 16:55:40;;;;;;;32.78;23.65;;;15.30;45.30;;;;;;5033932;28;20204;-64
2022/12/17 16:58:07;;;;;;;32.03;22.52;;;15.30;45.20;;;;;;5035412;28;20220;-64
2022/12/17 17:00:34;;;;;;;30.65;23.05;;;15.30;45.10;;;;;;5032687;28;20200;-65
2022/12/17 17:03:01;;;;;;;30.67;23.40;;;15.20;44.00;;;;;;5019696;28;20343;-64
2022/12/17 17:05:30;;;;;;;29.95;22.55;;;15.20;44.00;;;;;;5025026;28;20552;-65
2022/12/17 17:07:59;;;;;;;26.95;21.52;;;15.20;42.80;;;;;;5032702;28;20216;-65
2022/12/17 17:10:25;;;;;;;28.33;21.50;;;15.20;43.00;;;;;;5032003;28;20227;-65
2022/12/17 17:12:52;;;;;;;26.08;21.45;;;15.20;43.30;;;;;;5018028;28;20233;-64
2022/12/17 17:15:19;;;;;;;28.13;21.45;;;15.20;43.30;;;;;;5019313;28;20185;-65
2022/12/17 17:17:46;;;;;;;28.30;20.20;;;15.20;43.70;;;;;;5018336;28;20221;-65
2022/12/17 17:20:14;;;;;;;29.70;22.08;;;15.20;44.10;;;;;;5015155;28;20283;-65
2022/12/17 17:22:40;;;;;;;27.27;20.48;;;15.20;44.20;;;;;;5014192;28;20204;-65
2022/12/17 17:25:09;;;;;;;27.92;20.15;;;15.20;44.60;;;;;;5016651;28;20212;-65
2022/12/17 17:27:36;;;;;;;27.75;20.75;;;15.20;44.30;;;;;;5018694;28;20247;-64
2022/12/17 17:30:04;;;;;;;26.90;21.17;;;15.20;44.50;;;;;;5026385;28;20231;-64
2022/12/17 17:32:31;;;;;;;27.15;19.92;;;15.20;44.10;;;;;;5014068;28;20545;-64
2022/12/17 17:34:58;;;;;;;28.15;19.58;;;15.20;44.30;;;;;;5013660;28;20300;-64
2022/12/17 17:37:26;;;;;;;27.73;19.40;;;15.20;44.00;;;;;;5014415;28;20188;-64
2022/12/17 17:39:53;;;;;;;26.65;19.52;;;15.20;44.10;;;;;;5015001;28;20193;-64
2022/12/17 17:42:22;;;;;;;24.05;18.58;;;15.20;44.20;;;;;;5015278;28;20201;-64
2022/12/17 17:44:49;;;;;;;24.92;19.52;;;15.20;45.10;;;;;;5013835;28;20331;-64
2022/12/17 17:47:16;;;;;;;27.92;19.40;;;15.30;44.20;;;;;;5013697;28;20554;-64
2022/12/17 17:49:43;;;;;;;23.80;18.65;;;15.20;44.20;;;;;;5013668;28;20192;-64
2022/12/17 17:52:10;;;;;;;25.38;19.05;;;15.20;44.30;;;;;;5014717;28;20212;-64
2022/12/17 17:54:38;;;;;;;25.00;18.40;;;15.20;43.50;;;;;;5013527;28;20239;-64
2022/12/17 17:57:04;;;;;;;23.77;17.80;;;15.20;43.20;;;;;;5013248;28;20204;-64
2022/12/17 17:59:33;;;;;;;25.05;17.63;;;15.20;42.90;;;;;;5014537;28;20212;-64
2022/12/17 18:02:00;;;;;;;21.50;17.77;;;15.20;42.90;;;;;;5013208;28;20655;-64
2022/12/17 18:04:27;;;;;;;23.50;17.90;;;15.20;42.40;;;;;;5018129;28;20563;-65
2022/12/17 18:06:54;;;;;;;23.67;17.75;;;15.20;43.00;;;;;;5013307;28;20319;-65
2022/12/17 18:09:21;;;;;;;22.63;18.02;;;15.20;42.50;;;;;;5032132;28;20230;-65
2022/12/17 18:11:48;;;;;;;21.85;17.80;;;15.20;42.50;;;;;;5032823;28;20674;-65
2022/12/17 18:14:16;;;;;;;22.23;16.75;;;15.20;42.40;;;;;;5034010;28;20210;-65
2022/12/17 18:16:46;;;;;;;22.40;17.67;;;15.10;42.40;;;;;;5033031;28;20231;-65
2022/12/17 18:19:14;;;;;;;24.73;18.08;;;15.20;43.10;;;;;;5036075;28;20278;-65
2022/12/17 18:21:43;;;;;;;20.73;16.02;;;15.10;42.50;;;;;;5033360;28;20200;-66
2022/12/17 18:24:11;;;;;;;21.60;17.88;;;15.10;42.80;;;;;;5032758;28;20754;-65
2022/12/17 18:26:41;;;;;;;20.77;16.85;;;15.20;42.50;;;;;;5033893;28;20212;-65
2022/12/17 18:29:09;;;;;;;25.33;19.25;;;15.10;42.90;;;;;;5030937;28;20593;-65
2022/12/17 18:31:36;;;;;;;22.45;18.25;;;15.10;42.50;;;;;;5032556;28;20223;-65
2022/12/17 18:34:05;;;;;;;20.08;17.05;;;15.10;42.70;;;;;;5032501;28;20192;-66
2022/12/17 18:36:34;;;;;;;21.60;17.10;;;15.10;42.80;;;;;;5032469;28;20192;-65
2022/12/17 18:39:02;;;;;;;23.73;17.60;;;15.10;42.80;;;;;;5032547;28;20307;-65
2022/12/17 18:44:14;;;;;;;23.52;17.55;;;15.10;42.70;;;;;;5032361;28;20549;-65
2022/12/17 18:46:41;;;;;;;20.25;16.42;;;15.10;42.70;;;;;;5029597;28;20204;-65
2022/12/17 18:49:12;;;;;;;24.33;17.52;;;15.10;43.20;;;;;;5012711;28;20246;-65
2022/12/17 18:51:40;;;;;;;24.20;18.17;;;15.10;43.20;;;;;;5031848;28;20677;-66
2022/12/17 18:54:09;;;;;;;22.58;17.40;;;15.10;42.70;;;;;;5032555;28;20242;-65
2022/12/17 18:56:37;;;;;;;24.48;17.63;;;15.20;43.00;;;;;;5032081;28;20193;-65
2022/12/17 18:59:04;;;;;;;21.27;16.27;;;15.10;42.80;;;;;;5031350;28;20248;-64
2022/12/17 19:01:32;;;;;;;21.20;16.58;;;15.10;42.90;;;;;;5029369;28;20203;-64
2022/12/17 19:04:01;;;;;;;23.63;19.35;;;15.20;42.50;;;;;;5028666;28;20445;-65
2022/12/17 19:06:29;;;;;;;25.15;19.63;;;15.10;42.20;;;;;;5030317;28;20223;-66
2022/12/17 19:08:57;;;;;;;23.30;17.73;;;15.10;49.00;;;;;;5031981;28;20219;-65
2022/12/17 19:11:23;;;;;;;27.35;18.63;;;15.10;49.30;;;;;;5017591;28;20539;-65
2022/12/17 19:13:51;;;;;;;22.75;16.90;;;15.00;47.90;;;;;;5000401;28;20204;-66
2022/12/17 19:16:19;;;;;;;22.23;17.70;;;15.00;47.30;;;;;;5032291;28;20200;-66
2022/12/17 19:18:50;;;;;;;24.83;18.92;;;15.00;47.40;;;;;;5032141;28;20216;-65
2022/12/17 19:21:17;;;;;;;275.58;94.45;;;14.90;49.10;;;;;;5032092;28;20251;-66
2022/12/17 19:23:46;;;;;;;422.00;105.57;;;14.90;56.20;;;;;;5032089;28;20243;-65
2022/12/17 19:26:14;;;;;;;287.77;77.60;;;14.90;57.60;;;;;;5031766;28;20201;-65
2022/12/17 19:28:42;;;;;;;242.63;75.65;;;14.90;61.10;;;;;;5031992;28;20224;-65
2022/12/17 19:31:09;;;;;;;196.05;64.18;;;14.90;59.60;;;;;;5031908;28;20201;-66
2022/12/17 19:33:36;;;;;;;180.30;58.80;;;15.00;61.60;;;;;;5016913;28;20193;-66
2022/12/17 19:36:03;;;;;;;152.70;52.22;;;15.00;64.10;;;;;;5031916;28;20648;-65
2022/12/17 19:38:31;;;;;;;133.27;49.55;;;15.00;61.60;;;;;;5031747;28;20221;-65
2022/12/17 19:41:04;;;;;;;120.57;47.17;;;15.00;61.40;;;;;;5031751;28;20204;-65
2022/12/17 19:43:32;;;;;;;112.88;43.35;;;15.10;61.50;;;;;;5031770;28;20197;-65
2022/12/17 19:46:03;;;;;;;97.60;38.80;;;15.10;60.70;;;;;;5016667;28;20200;-65
2022/12/17 19:48:31;;;;;;;114.15;43.83;;;15.10;56.20;;;;;;5032567;28;20217;-65
2022/12/17 19:50:58;;;;;;;101.43;46.53;;;15.10;61.50;;;;;;5032506;28;20608;-65
2022/12/17 19:53:26;;;;;;;89.70;40.97;;;15.10;59.90;;;;;;5031651;28;20627;-65
2022/12/17 19:55:54;;;;;;;91.10;41.83;;;15.10;59.50;;;;;;5028608;28;20192;-65
2022/12/17 19:58:22;;;;;;;82.50;41.08;;;15.00;57.50;;;;;;5010144;28;20213;-65
2022/12/17 20:00:49;;;;;;;89.40;36.88;;;15.00;61.30;;;;;;5032320;28;20194;-65
2022/12/17 20:03:16;;;;;;;82.97;36.25;;;15.00;55.20;;;;;;5034750;28;20196;-65
2022/12/17 20:05:44;;;;;;;81.03;34.90;;;15.00;54.10;;;;;;5018256;28;20199;-65
2022/12/17 20:08:11;;;;;;;77.00;34.72;;;15.00;53.50;;;;;;5028446;28;20233;-65
2022/12/17 20:10:39;;;;;;;85.45;34.20;;;15.10;53.60;;;;;;5034368;28;20201;-65
2022/12/17 20:13:06;;;;;;;72.55;33.58;;;15.10;52.70;;;;;;5014674;28;20655;-65
2022/12/17 20:15:35;;;;;;;74.07;33.78;;;15.10;56.30;;;;;;5014766;28;20196;-65
2022/12/17 20:18:02;;;;;;;74.43;32.03;;;15.10;53.10;;;;;;5014892;28;20229;-65
2022/12/17 20:20:29;;;;;;;66.20;32.22;;;15.10;52.50;;;;;;5014018;28;20197;-65
2022/12/17 20:22:56;;;;;;;70.78;31.67;;;15.10;52.70;;;;;;4997970;28;20212;-65
2022/12/17 20:25:23;;;;;;;59.90;29.77;;;15.20;52.50;;;;;;5014438;28;20679;-65
2022/12/17 20:27:50;;;;;;;60.28;29.02;;;15.10;52.50;;;;;;5015745;28;20220;-65
2022/12/17 20:30:17;;;;;;;56.88;29.23;;;15.10;52.40;;;;;;5015898;28;20228;-65
2022/12/17 20:32:45;;;;;;;63.63;29.30;;;15.10;51.20;;;;;;5014518;28;20221;-65
2022/12/17 20:35:12;;;;;;;52.25;27.63;;;15.10;51.50;;;;;;5014495;28;20651;-65
2022/12/17 20:37:39;;;;;;;57.25;28.05;;;15.10;51.30;;;;;;5014198;28;20296;-65
2022/12/17 20:40:08;;;;;;;50.90;27.15;;;15.10;51.40;;;;;;5015699;28;20195;-65
2022/12/17 20:42:36;;;;;;;52.60;26.90;;;15.10;51.30;;;;;;5014567;28;20208;-66
2022/12/17 20:45:04;;;;;;;53.20;27.33;;;15.10;50.70;;;;;;5014789;28;20200;-64
2022/12/17 20:47:31;;;;;;;48.72;25.13;;;15.10;50.80;;;;;;5014498;28;20224;-64
2022/12/17 20:50:00;;;;;;;47.60;26.58;;;15.10;50.70;;;;;;5015004;28;20205;-64
2022/12/17 20:52:27;;;;;;;49.53;24.70;;;15.10;50.60;;;;;;5015034;28;20205;-64
2022/12/17 20:54:53;;;;;;;46.33;23.98;;;15.00;50.20;;;;;;5015561;28;20280;-64
2022/12/17 20:57:20;;;;;;;46.58;24.00;;;15.10;50.20;;;;;;5013833;28;20255;-64
2022/12/17 20:59:47;;;;;;;43.25;23.58;;;15.00;49.80;;;;;;5015340;28;20185;-64
2022/12/17 21:02:16;;;;;;;45.08;24.02;;;15.10;49.90;;;;;;5012946;28;20196;-64
2022/12/17 21:04:44;;;;;;;43.72;23.58;;;15.00;49.40;;;;;;5026247;28;20266;-64
2022/12/17 21:07:12;;;;;;;38.85;22.75;;;15.00;49.10;;;;;;5025790;28;20231;-64
2022/12/17 21:09:39;;;;;;;40.38;22.90;;;15.00;49.50;;;;;;5033279;28;20208;-64
2022/12/17 21:12:08;;;;;;;42.33;23.17;;;15.10;49.40;;;;;;5034556;28;20557;-63
2022/12/17 21:14:35;;;;;;;42.28;21.83;;;15.00;49.40;;;;;;5033610;28;20621;-64
2022/12/17 21:17:02;;;;;;;36.08;21.33;;;15.10;48.50;;;;;;5028509;28;20204;-63
2022/12/17 21:19:29;;;;;;;36.78;21.85;;;15.00;47.70;;;;;;5031462;28;20226;-64
2022/12/17 21:21:56;;;;;;;37.65;21.27;;;15.00;48.00;;;;;;5024290;28;20197;-64
2022/12/17 21:24:25;;;;;;;35.60;20.30;;;14.90;47.20;;;;;;5040217;28;20208;-64
2022/12/17 21:26:52;;;;;;;30.73;19.55;;;14.90;47.30;;;;;;5033692;28;20659;-64
2022/12/17 21:29:19;;;;;;;29.40;21.15;;;14.80;47.20;;;;;;5032324;28;20261;-64
2022/12/17 21:31:47;;;;;;;38.38;21.23;;;14.80;46.80;;;;;;5029842;28;20570;-64
2022/12/17 21:34:16;;;;;;;31.27;19.05;;;14.70;46.50;;;;;;5016120;28;20620;-64
2022/12/17 21:36:42;;;;;;;32.88;20.30;;;14.70;47.20;;;;;;5024947;28;20242;-64
2022/12/17 21:39:09;;;;;;;30.00;19.63;;;14.70;46.20;;;;;;5032817;28;20224;-64
2022/12/17 21:41:39;;;;;;;33.03;20.52;;;14.70;46.10;;;;;;5032886;28;20563;-64
2022/12/17 21:44:06;;;;;;;28.70;20.02;;;14.60;46.40;;;;;;5016613;28;20218;-64
2022/12/17 21:46:33;;;;;;;31.50;20.58;;;14.70;46.10;;;;;;5032803;28;20207;-64
2022/12/17 21:49:01;;;;;;;27.05;18.88;;;14.60;45.70;;;;;;5032412;28;20232;-64
2022/12/17 21:51:29;;;;;;;32.65;19.00;;;14.60;45.00;;;;;;5032471;28;20575;-64
2022/12/17 21:53:57;;;;;;;28.67;18.52;;;14.70;44.50;;;;;;5032555;28;20228;-64
2022/12/17 21:56:25;;;;;;;27.88;19.30;;;14.60;44.20;;;;;;5032543;28;20192;-64
2022/12/17 21:58:57;;;;;;;29.77;18.40;;;14.60;44.00;;;;;;5030959;28;20550;-64
2022/12/17 22:01:25;;;;;;;28.05;18.17;;;14.60;44.00;;;;;;5029436;28;20262;-65
2022/12/17 22:03:53;;;;;;;27.23;18.77;;;14.60;44.40;;;;;;5032614;28;20196;-65
2022/12/17 22:06:20;;;;;;;31.30;20.05;;;14.60;44.50;;;;;;5032475;28;20204;-65
2022/12/17 22:08:48;;;;;;;28.83;18.95;;;14.60;45.00;;;;;;5032334;28;20220;-65
2022/12/17 22:11:16;;;;;;;26.45;18.88;;;14.60;45.30;;;;;;5032147;28;20287;-64
2022/12/17 22:16:30;;;;;;;26.20;19.08;;;14.50;46.40;;;;;;5032320;28;20184;-65
2022/12/17 22:18:58;;;;;;;25.65;17.60;;;14.50;45.70;;;;;;5032374;28;20212;-65
2022/12/17 22:21:25;;;;;;;25.40;18.08;;;14.50;46.00;;;;;;5032731;28;20196;-64
2022/12/17 22:23:52;;;;;;;23.65;16.77;;;14.50;46.40;;;;;;5033007;28;20196;-65
2022/12/17 22:26:19;;;;;;;26.02;19.13;;;14.50;45.80;;;;;;5034462;28;20200;-65
2022/12/17 22:28:47;;;;;;;25.30;18.10;;;14.50;45.90;;;;;;5032769;28;20232;-65
2022/12/17 22:34:00;;;;;;;24.30;18.10;;;14.50;45.70;;;;;;5033875;28;20203;-65
2022/12/17 22:36:28;;;;;;;26.17;17.80;;;14.50;45.50;;;;;;5032509;28;20224;-65
2022/12/17 22:38:55;;;;;;;25.77;18.27;;;14.50;45.90;;;;;;5031074;28;20694;-65
2022/12/17 22:44:06;;;;;;;23.80;18.92;;;14.40;45.60;;;;;;5015389;28;20211;-65
2022/12/17 22:46:33;;;;;;;25.63;18.45;;;14.40;45.70;;;;;;5017552;28;20200;-65
2022/12/17 22:49:01;;;;;;;25.27;18.23;;;14.40;45.50;;;;;;5017791;28;20286;-65
2022/12/17 22:51:28;;;;;;;24.25;17.88;;;14.40;45.70;;;;;;5016673;28;20287;-65
2022/12/17 22:53:55;;;;;;;26.92;18.52;;;14.30;45.50;;;;;;5017045;28;20535;-65
2022/12/17 22:56:22;;;;;;;23.20;17.63;;;14.30;45.70;;;;;;5027357;28;20200;-65
2022/12/17 22:58:49;;;;;;;25.13;18.48;;;14.30;45.70;;;;;;5022808;28;20213;-65
2022/12/17 23:01:16;;;;;;;23.35;17.92;;;14.30;46.10;;;;;;5023902;28;20208;-65
2022/12/17 23:03:43;;;;;;;24.33;18.08;;;14.20;45.70;;;;;;5035878;28;20682;-64
2022/12/17 23:06:12;;;;;;;23.90;16.65;;;14.20;45.80;;;;;;5037104;28;20550;-64
2022/12/17 23:08:39;;;;;;;22.95;17.70;;;14.20;46.20;;;;;;5034899;28;20228;-64
2022/12/17 23:11:07;;;;;;;23.48;17.33;;;14.20;46.40;;;;;;5035580;28;20210;-64
2022/12/17 23:13:34;;;;;;;22.25;17.38;;;14.20;46.20;;;;;;5032962;28;20299;-64
2022/12/17 23:16:01;;;;;;;24.50;17.65;;;14.10;46.20;;;;;;5037557;28;20568;-64
2022/12/17 23:18:28;;;;;;;22.92;17.83;;;14.10;45.80;;;;;;5035713;28;20216;-64
2022/12/17 23:20:55;;;;;;;24.40;18.30;;;14.10;44.90;;;;;;5031046;28;20203;-64
2022/12/17 23:23:23;;;;;;;21.33;16.98;;;14.00;44.60;;;;;;5043247;28;20660;-64
2022/12/17 23:25:51;;;;;;;22.63;17.27;;;14.00;45.10;;;;;;5036643;28;20200;-64
2022/12/17 23:28:18;;;;;;;21.20;15.90;;;14.00;45.50;;;;;;5036486;28;20255;-64
2022/12/17 23:30:46;;;;;;;20.77;16.60;;;14.00;45.70;;;;;;5035591;28;20204;-64
2022/12/17 23:33:13;;;;;;;22.85;17.67;;;13.90;45.50;;;;;;5035585;28;20655;-64
2022/12/17 23:35:40;;;;;;;21.15;16.70;;;13.90;45.40;;;;;;5035969;28;20207;-64
2022/12/17 23:38:07;;;;;;;22.70;17.05;;;13.90;45.50;;;;;;5033273;28;20211;-64
2022/12/17 23:40:35;;;;;;;18.77;15.23;;;13.80;45.90;;;;;;5016868;28;20220;-64
2022/12/17 23:43:02;;;;;;;23.13;17.17;;;13.90;46.20;;;;;;5034158;28;20227;-64
2022/12/17 23:45:29;;;;;;;50.25;24.13;;;13.80;45.40;;;;;;5035856;28;20203;-64
2022/12/17 23:47:58;;;;;;;34.83;20.15;;;13.80;46.30;;;;;;5035004;28;20212;-64
2022/12/17 23:50:24;;;;;;;36.13;20.98;;;13.80;45.80;;;;;;5036614;28;20271;-64
2022/12/17 23:52:52;;;;;;;35.70;21.65;;;13.80;46.00;;;;;;5035053;28;20204;-64
2022/12/17 23:55:19;;;;;;;31.83;20.20;;;13.70;46.10;;;;;;5033129;28;20323;-64
2022/12/17 23:57:47;;;;;;;33.70;19.83;;;13.70;46.70;;;;;;5015848;28;20219;-64
